sensor_id;sensor_type;location;lat;lon;timestamp;pressure;altitude;pressure_sealevel;temperature;humidity
60055;BME280;45930;53.514;55.904;2022-12-10T00:00:04;50025.38;;;-149.77;100.00
60055;BME280;45930;53.514;55.904;2022-12-10T00:01:06;50033.31;;;-149.77;100.00
60055;BME280;45930;53.514;55.904;2022-12-10T00:02:07;50041.22;;;-149.77;100.00
60055;BME280;45930;53.514;55.904;2022-12-10T00:03:08;50001.59;;;-149.77;100.00
60055;BME280;45930;53.514;55.904;2022-12-10T00:04:10;49999.63;;;-149.77;100.00
60055;BME280;45930;53.514;55.904;2022-12-10T00:05:11;50029.34;;;-149.77;100.00
60055;BME280;45930;53.514;55.904;2022-12-10T00:06:17;50019.44;;;-149.77;100.00
60055;BME280;45930;53.514;55.904;2022-12-10T00:07:18;50059.06;;;-149.77;100.00
60055;BME280;45930;53.514;55.904;2022-12-10T00:08:19;50070.94;;;-149.77;100.00
60055;BME280;45930;53.514;55.904;2022-12-10T00:09:20;50072.94;;;-149.77;99.31
60055;BME280;45930;53.514;55.904;2022-12-10T00:10:21;50066.97;;;-149.77;98.48
60055;BME280;45930;53.514;55.904;2022-12-10T00:11:23;50108.59;;;-149.77;97.05
60055;BME280;45930;53.514;55.904;2022-12-10T00:12:24;50088.78;;;-149.77;95.93
60055;BME280;45930;53.514;55.904;2022-12-10T00:13:24;50104.63;;;-149.77;96.25
60055;BME280;45930;53.514;55.904;2022-12-10T00:14:25;50074.91;;;-149.77;96.66
60055;BME280;45930;53.514;55.904;2022-12-10T00:15:35;50068.97;;;-149.77;95.86
60055;BME280;45930;53.514;55.904;2022-12-10T00:16:36;50076.88;;;-149.77;95.30
60055;BME280;45930;53.514;55.904;2022-12-10T00:17:37;50116.50;;;-149.77;95.38
60055;BME280;45930;53.514;55.904;2022-12-10T00:18:38;50094.72;;;-149.77;95.56
60055;BME280;45930;53.514;55.904;2022-12-10T00:19:39;50112.56;;;-149.77;95.40
60055;BME280;45930;53.514;55.904;2022-12-10T00:20:40;50116.50;;;-149.77;95.90
60055;BME280;45930;53.514;55.904;2022-12-10T00:21:42;50102.66;;;-149.77;95.78
60055;BME280;45930;53.514;55.904;2022-12-10T00:22:43;50078.88;;;-149.77;95.57
60055;BME280;45930;53.514;55.904;2022-12-10T00:23:44;50090.75;;;-149.77;96.53
60055;BME280;45930;53.514;55.904;2022-12-10T00:24:45;50098.69;;;-149.77;96.49
60055;BME280;45930;53.514;55.904;2022-12-10T00:25:46;50090.75;;;-149.77;95.85
60055;BME280;45930;53.514;55.904;2022-12-10T00:26:47;50094.72;;;-149.77;96.47
60055;BME280;45930;53.514;55.904;2022-12-10T00:27:48;50088.78;;;-149.77;96.68
60055;BME280;45930;53.514;55.904;2022-12-10T00:28:49;50059.06;;;-149.77;96.76
60055;BME280;45930;53.514;55.904;2022-12-10T00:29:50;50090.75;;;-149.77;97.61
60055;BME280;45930;53.514;55.904;2022-12-10T00:30:51;50090.75;;;-149.77;98.00
60055;BME280;45930;53.514;55.904;2022-12-10T00:31:52;50102.66;;;-149.77;98.15
60055;BME280;45930;53.514;55.904;2022-12-10T00:32:52;50098.69;;;-149.77;97.96
60055;BME280;45930;53.514;55.904;2022-12-10T00:33:55;50082.84;;;-149.77;97.74
60055;BME280;45930;53.514;55.904;2022-12-10T00:34:56;50061.03;;;-149.77;97.32
60055;BME280;45930;53.514;55.904;2022-12-10T00:36:04;50116.50;;;-149.77;97.25
60055;BME280;45930;53.514;55.904;2022-12-10T00:37:05;50100.66;;;-149.77;96.42
60055;BME280;45930;53.514;55.904;2022-12-10T00:38:05;50090.75;;;-149.77;96.16
60055;BME280;45930;53.514;55.904;2022-12-10T00:39:06;50118.50;;;-149.77;95.59
60055;BME280;45930;53.514;55.904;2022-12-10T00:40:08;50082.84;;;-149.77;95.54
60055;BME280;45930;53.514;55.904;2022-12-10T00:41:09;50104.63;;;-149.77;95.30
60055;BME280;45930;53.514;55.904;2022-12-10T00:42:10;50098.69;;;-149.77;95.71
60055;BME280;45930;53.514;55.904;2022-12-10T00:43:11;50100.66;;;-149.77;96.42
60055;BME280;45930;53.514;55.904;2022-12-10T00:44:12;50122.47;;;-149.77;96.06
60055;BME280;45930;53.514;55.904;2022-12-10T00:45:13;50106.59;;;-149.77;96.35
60055;BME280;45930;53.514;55.904;2022-12-10T00:46:15;50065.00;;;-149.77;95.77
60055;BME280;45930;53.514;55.904;2022-12-10T00:47:16;50114.53;;;-149.77;96.07
60055;BME280;45930;53.514;55.904;2022-12-10T00:48:17;50084.81;;;-149.77;95.61
60055;BME280;45930;53.514;55.904;2022-12-10T00:49:17;50090.75;;;-149.77;95.61
60055;BME280;45930;53.514;55.904;2022-12-10T00:50:18;50098.69;;;-149.77;95.11
60055;BME280;45930;53.514;55.904;2022-12-10T00:51:21;50070.94;;;-149.77;94.86
60055;BME280;45930;53.514;55.904;2022-12-10T00:52:22;50106.59;;;-149.77;94.73
60055;BME280;45930;53.514;55.904;2022-12-10T00:53:24;50082.84;;;-149.77;94.58
60055;BME280;45930;53.514;55.904;2022-12-10T00:54:25;50110.56;;;-149.77;94.54
60055;BME280;45930;53.514;55.904;2022-12-10T00:55:25;50108.59;;;-149.77;95.14
60055;BME280;45930;53.514;55.904;2022-12-10T00:56:29;50108.59;;;-149.77;94.38
60055;BME280;45930;53.514;55.904;2022-12-10T00:57:30;50112.56;;;-149.77;94.58
60055;BME280;45930;53.514;55.904;2022-12-10T00:58:33;50134.34;;;-149.77;94.35
60055;BME280;45930;53.514;55.904;2022-12-10T00:59:34;50102.66;;;-149.77;94.01
60055;BME280;45930;53.514;55.904;2022-12-10T01:00:34;50072.94;;;-149.77;93.60
60055;BME280;45930;53.514;55.904;2022-12-10T01:01:38;50122.47;;;-149.77;93.08
60055;BME280;45930;53.514;55.904;2022-12-10T01:02:39;50096.69;;;-149.77;93.20
60055;BME280;45930;53.514;55.904;2022-12-10T01:03:40;50114.53;;;-149.77;93.11
60055;BME280;45930;53.514;55.904;2022-12-10T01:04:41;50104.63;;;-149.77;92.50
60055;BME280;45930;53.514;55.904;2022-12-10T01:05:42;50114.53;;;-149.77;92.64
60055;BME280;45930;53.514;55.904;2022-12-10T01:07:45;50082.84;;;-149.77;93.68
60055;BME280;45930;53.514;55.904;2022-12-10T01:08:47;50104.63;;;-149.77;93.32
60055;BME280;45930;53.514;55.904;2022-12-10T01:09:48;50110.56;;;-149.77;93.99
60055;BME280;45930;53.514;55.904;2022-12-10T01:10:52;50106.59;;;-149.77;93.90
60055;BME280;45930;53.514;55.904;2022-12-10T01:11:55;50082.84;;;-149.77;95.06
60055;BME280;45930;53.514;55.904;2022-12-10T01:12:56;50110.56;;;-149.77;95.51
60055;BME280;45930;53.514;55.904;2022-12-10T01:14:00;50142.28;;;-149.77;95.37
60055;BME280;45930;53.514;55.904;2022-12-10T01:15:00;50112.56;;;-149.77;96.36
60055;BME280;45930;53.514;55.904;2022-12-10T01:16:04;50088.78;;;-149.77;96.88
60055;BME280;45930;53.514;55.904;2022-12-10T01:17:06;50108.59;;;-149.77;97.28
60055;BME280;45930;53.514;55.904;2022-12-10T01:18:07;50100.66;;;-149.77;97.14
60055;BME280;45930;53.514;55.904;2022-12-10T01:19:08;50122.47;;;-149.77;97.56
60055;BME280;45930;53.514;55.904;2022-12-10T01:20:09;50116.50;;;-149.77;97.88
60055;BME280;45930;53.514;55.904;2022-12-10T01:21:12;50078.88;;;-149.77;98.64
60055;BME280;45930;53.514;55.904;2022-12-10T01:22:14;50059.06;;;-149.77;100.00
60055;BME280;45930;53.514;55.904;2022-12-10T01:23:15;50078.88;;;-149.77;100.00
60055;BME280;45930;53.514;55.904;2022-12-10T01:24:15;50057.06;;;-149.77;100.00
60055;BME280;45930;53.514;55.904;2022-12-10T01:25:16;50049.16;;;-149.77;100.00
60055;BME280;45930;53.514;55.904;2022-12-10T01:26:19;50078.88;;;-149.77;100.00
60055;BME280;45930;53.514;55.904;2022-12-10T01:27:20;50031.31;;;-149.77;100.00
60055;BME280;45930;53.514;55.904;2022-12-10T01:28:21;50041.22;;;-149.77;100.00
60055;BME280;45930;53.514;55.904;2022-12-10T01:29:22;50011.50;;;-149.77;100.00
60055;BME280;45930;53.514;55.904;2022-12-10T01:30:23;50051.13;;;-149.77;100.00
60055;BME280;45930;53.514;55.904;2022-12-10T01:31:26;50041.22;;;-149.77;100.00
60055;BME280;45930;53.514;55.904;2022-12-10T01:32:27;50027.34;;;-149.77;100.00
60055;BME280;45930;53.514;55.904;2022-12-10T01:33:29;50011.50;;;-149.77;100.00
60055;BME280;45930;53.514;55.904;2022-12-10T01:34:30;50031.31;;;-149.77;100.00
60055;BME280;45930;53.514;55.904;2022-12-10T01:35:31;50053.13;;;-149.77;100.00
60055;BME280;45930;53.514;55.904;2022-12-10T01:36:35;50027.34;;;-149.77;100.00
60055;BME280;45930;53.514;55.904;2022-12-10T01:37:36;50027.34;;;-149.77;100.00
60055;BME280;45930;53.514;55.904;2022-12-10T01:38:37;50051.13;;;-149.77;100.00
60055;BME280;45930;53.514;55.904;2022-12-10T01:39:37;50043.22;;;-149.77;100.00
60055;BME280;45930;53.514;55.904;2022-12-10T01:40:39;50074.91;;;-149.77;100.00
60055;BME280;45930;53.514;55.904;2022-12-10T01:41:43;49971.88;;;-149.77;100.00
60055;BME280;45930;53.514;55.904;2022-12-10T01:42:44;50029.34;;;-149.77;100.00
60055;BME280;45930;53.514;55.904;2022-12-10T01:45:15;50013.50;;;-149.77;100.00
60055;BME280;45930;53.514;55.904;2022-12-10T01:46:16;50047.16;;;-149.77;100.00
60055;BME280;45930;53.514;55.904;2022-12-10T01:47:17;50047.16;;;-149.77;100.00
60055;BME280;45930;53.514;55.904;2022-12-10T01:48:19;50043.22;;;-149.77;100.00
60055;BME280;45930;53.514;55.904;2022-12-10T01:49:21;50025.38;;;-149.77;100.00
60055;BME280;45930;53.514;55.904;2022-12-10T01:50:21;50001.59;;;-149.77;100.00
60055;BME280;45930;53.514;55.904;2022-12-10T01:51:24;50015.47;;;-149.77;100.00
60055;BME280;45930;53.514;55.904;2022-12-10T01:52:25;50027.34;;;-149.77;100.00
60055;BME280;45930;53.514;55.904;2022-12-10T01:53:26;50011.50;;;-149.77;100.00
60055;BME280;45930;53.514;55.904;2022-12-10T01:54:34;50011.50;;;-149.77;100.00
60055;BME280;45930;53.514;55.904;2022-12-10T01:55:49;50009.53;;;-149.77;100.00
60055;BME280;45930;53.514;55.904;2022-12-10T01:56:58;49993.69;;;-149.77;100.00
60055;BME280;45930;53.514;55.904;2022-12-10T01:57:59;50023.41;;;-149.77;100.00
60055;BME280;45930;53.514;55.904;2022-12-10T01:59:00;49997.63;;;-149.77;100.00
60055;BME280;45930;53.514;55.904;2022-12-10T02:00:05;49979.81;;;-149.77;100.00
60055;BME280;45930;53.514;55.904;2022-12-10T02:01:11;49975.84;;;-149.77;100.00
60055;BME280;45930;53.514;55.904;2022-12-10T02:02:19;50009.53;;;-149.77;100.00
60055;BME280;45930;53.514;55.904;2022-12-10T02:03:38;49975.84;;;-149.77;100.00
60055;BME280;45930;53.514;55.904;2022-12-10T02:06:28;49997.63;;;-149.77;100.00
60055;BME280;45930;53.514;55.904;2022-12-10T02:07:40;50005.56;;;-149.77;100.00
60055;BME280;45930;53.514;55.904;2022-12-10T02:10:39;50019.44;;;-149.77;100.00
60055;BME280;45930;53.514;55.904;2022-12-10T02:11:44;49985.75;;;-149.77;100.00
60055;BME280;45930;53.514;55.904;2022-12-10T02:13:16;50043.22;;;-149.77;100.00
60055;BME280;45930;53.514;55.904;2022-12-10T02:14:21;50023.41;;;-149.77;100.00
60055;BME280;45930;53.514;55.904;2022-12-10T02:15:31;49983.78;;;-149.77;100.00
60055;BME280;45930;53.514;55.904;2022-12-10T02:17:10;50015.47;;;-149.77;100.00
60055;BME280;45930;53.514;55.904;2022-12-10T02:18:11;49983.78;;;-149.77;100.00
60055;BME280;45930;53.514;55.904;2022-12-10T02:20:30;49995.66;;;-149.77;100.00
60055;BME280;45930;53.514;55.904;2022-12-10T02:21:36;49960.00;;;-149.77;100.00
60055;BME280;45930;53.514;55.904;2022-12-10T02:23:03;49989.72;;;-149.77;100.00
60055;BME280;45930;53.514;55.904;2022-12-10T02:24:08;49961.97;;;-149.77;100.00
60055;BME280;45930;53.514;55.904;2022-12-10T02:25:13;49952.06;;;-149.77;100.00
60055;BME280;45930;53.514;55.904;2022-12-10T02:26:38;49954.06;;;-149.77;100.00
60055;BME280;45930;53.514;55.904;2022-12-10T02:27:57;49967.94;;;-149.77;100.00
60055;BME280;45930;53.514;55.904;2022-12-10T02:29:16;49950.09;;;-149.77;100.00
60055;BME280;45930;53.514;55.904;2022-12-10T02:30:18;49969.91;;;-149.77;100.00
60055;BME280;45930;53.514;55.904;2022-12-10T02:31:24;49952.06;;;-149.77;100.00
60055;BME280;45930;53.514;55.904;2022-12-10T02:32:33;49973.88;;;-149.77;100.00
60055;BME280;45930;53.514;55.904;2022-12-10T02:33:39;49983.78;;;-149.77;100.00
60055;BME280;45930;53.514;55.904;2022-12-10T02:34:48;49969.91;;;-149.77;100.00
60055;BME280;45930;53.514;55.904;2022-12-10T02:35:51;49991.69;;;-149.77;100.00
60055;BME280;45930;53.514;55.904;2022-12-10T02:36:54;49948.13;;;-149.77;100.00
60055;BME280;45930;53.514;55.904;2022-12-10T02:39:11;49948.13;;;-149.77;100.00
60055;BME280;45930;53.514;55.904;2022-12-10T02:40:17;49926.31;;;-149.77;100.00
60055;BME280;45930;53.514;55.904;2022-12-10T02:41:25;49920.38;;;-149.77;100.00
60055;BME280;45930;53.514;55.904;2022-12-10T02:42:30;49954.06;;;-149.77;100.00
60055;BME280;45930;53.514;55.904;2022-12-10T02:43:32;49963.97;;;-149.77;100.00
60055;BME280;45930;53.514;55.904;2022-12-10T02:44:36;49952.06;;;-149.77;100.00
60055;BME280;45930;53.514;55.904;2022-12-10T02:45:38;49940.19;;;-149.77;100.00
60055;BME280;45930;53.514;55.904;2022-12-10T02:46:41;49934.25;;;-149.77;100.00
60055;BME280;45930;53.514;55.904;2022-12-10T02:47:43;49924.34;;;-149.77;100.00
60055;BME280;45930;53.514;55.904;2022-12-10T02:48:46;49950.09;;;-149.77;100.00
60055;BME280;45930;53.514;55.904;2022-12-10T02:49:52;49934.25;;;-149.77;100.00
60055;BME280;45930;53.514;55.904;2022-12-10T02:50:55;49952.06;;;-149.77;100.00
60055;BME280;45930;53.514;55.904;2022-12-10T02:51:56;49934.25;;;-149.77;100.00
60055;BME280;45930;53.514;55.904;2022-12-10T02:52:57;49940.19;;;-149.77;100.00
60055;BME280;45930;53.514;55.904;2022-12-10T02:54:03;49956.03;;;-149.77;100.00
60055;BME280;45930;53.514;55.904;2022-12-10T02:55:04;49932.25;;;-149.77;100.00
60055;BME280;45930;53.514;55.904;2022-12-10T02:56:33;49954.06;;;-149.77;100.00
60055;BME280;45930;53.514;55.904;2022-12-10T02:57:45;49979.81;;;-149.77;100.00
60055;BME280;45930;53.514;55.904;2022-12-10T02:59:12;49944.16;;;-149.77;100.00
60055;BME280;45930;53.514;55.904;2022-12-10T03:00:21;49936.22;;;-149.77;100.00
60055;BME280;45930;53.514;55.904;2022-12-10T03:06:53;49960.00;;;-149.77;100.00
60055;BME280;45930;53.514;55.904;2022-12-10T03:08:28;49944.16;;;-149.77;100.00
60055;BME280;45930;53.514;55.904;2022-12-10T03:09:37;49932.25;;;-149.77;100.00
60055;BME280;45930;53.514;55.904;2022-12-10T03:10:43;49958.03;;;-149.77;100.00
60055;BME280;45930;53.514;55.904;2022-12-10T03:11:46;49995.66;;;-149.77;100.00
60055;BME280;45930;53.514;55.904;2022-12-10T03:12:51;49963.97;;;-149.77;100.00
60055;BME280;45930;53.514;55.904;2022-12-10T03:14:05;50001.59;;;-149.77;100.00
60055;BME280;45930;53.514;55.904;2022-12-10T03:15:11;50003.59;;;-149.77;100.00
60055;BME280;45930;53.514;55.904;2022-12-10T03:16:12;50049.16;;;-149.77;100.00
60055;BME280;45930;53.514;55.904;2022-12-10T03:17:15;50055.09;;;-149.77;100.00
60055;BME280;45930;53.514;55.904;2022-12-10T03:18:17;50019.44;;;-149.77;100.00
60055;BME280;45930;53.514;55.904;2022-12-10T03:19:24;50066.97;;;-149.77;100.00
60055;BME280;45930;53.514;55.904;2022-12-10T03:20:26;50023.41;;;-149.77;100.00
60055;BME280;45930;53.514;55.904;2022-12-10T03:21:28;50066.97;;;-149.77;100.00
60055;BME280;45930;53.514;55.904;2022-12-10T03:22:31;50080.84;;;-149.77;100.00
60055;BME280;45930;53.514;55.904;2022-12-10T03:23:35;50039.25;;;-149.77;100.00
60055;BME280;45930;53.514;55.904;2022-12-10T03:24:37;50011.50;;;-149.77;100.00
60055;BME280;45930;53.514;55.904;2022-12-10T03:25:39;50047.16;;;-149.77;100.00
60055;BME280;45930;53.514;55.904;2022-12-10T03:26:40;50061.03;;;-149.77;100.00
60055;BME280;45930;53.514;55.904;2022-12-10T03:27:43;50051.13;;;-149.77;100.00
60055;BME280;45930;53.514;55.904;2022-12-10T03:28:52;50031.31;;;-149.77;100.00
60055;BME280;45930;53.514;55.904;2022-12-10T03:29:56;50055.09;;;-149.77;100.00
60055;BME280;45930;53.514;55.904;2022-12-10T03:30:58;50082.84;;;-149.77;100.00
60055;BME280;45930;53.514;55.904;2022-12-10T03:32:05;50049.16;;;-149.77;100.00
60055;BME280;45930;53.514;55.904;2022-12-10T03:33:06;50035.28;;;-149.77;100.00
60055;BME280;45930;53.514;55.904;2022-12-10T03:34:09;50031.31;;;-149.77;100.00
60055;BME280;45930;53.514;55.904;2022-12-10T03:35:12;50029.34;;;-149.77;100.00
60055;BME280;45930;53.514;55.904;2022-12-10T03:36:17;50049.16;;;-149.77;100.00
60055;BME280;45930;53.514;55.904;2022-12-10T03:37:21;50007.53;;;-149.77;100.00
60055;BME280;45930;53.514;55.904;2022-12-10T03:38:22;50033.31;;;-149.77;100.00
60055;BME280;45930;53.514;55.904;2022-12-10T03:39:23;50053.13;;;-149.77;100.00
60055;BME280;45930;53.514;55.904;2022-12-10T03:40:24;50029.34;;;-149.77;100.00
60055;BME280;45930;53.514;55.904;2022-12-10T03:41:25;50021.41;;;-149.77;100.00
60055;BME280;45930;53.514;55.904;2022-12-10T03:42:26;50015.47;;;-149.77;100.00
60055;BME280;45930;53.514;55.904;2022-12-10T03:43:27;50063.03;;;-149.77;100.00
60055;BME280;45930;53.514;55.904;2022-12-10T03:44:37;50066.97;;;-149.77;100.00
60055;BME280;45930;53.514;55.904;2022-12-10T03:45:40;50043.22;;;-149.77;100.00
60055;BME280;45930;53.514;55.904;2022-12-10T03:46:40;50047.16;;;-149.77;100.00
60055;BME280;45930;53.514;55.904;2022-12-10T03:47:41;50029.34;;;-149.77;100.00
60055;BME280;45930;53.514;55.904;2022-12-10T03:48:42;50055.09;;;-149.77;100.00
60055;BME280;45930;53.514;55.904;2022-12-10T03:49:43;50029.34;;;-149.77;100.00
60055;BME280;45930;53.514;55.904;2022-12-10T03:50:44;50065.00;;;-149.77;100.00
60055;BME280;45930;53.514;55.904;2022-12-10T03:51:45;50074.91;;;-149.77;100.00
60055;BME280;45930;53.514;55.904;2022-12-10T03:52:45;50066.97;;;-149.77;100.00
60055;BME280;45930;53.514;55.904;2022-12-10T03:53:46;50066.97;;;-149.77;100.00
60055;BME280;45930;53.514;55.904;2022-12-10T03:54:49;50059.06;;;-149.77;100.00
60055;BME280;45930;53.514;55.904;2022-12-10T03:55:49;50090.75;;;-149.77;100.00
60055;BME280;45930;53.514;55.904;2022-12-10T03:56:50;50088.78;;;-149.77;100.00
60055;BME280;45930;53.514;55.904;2022-12-10T03:57:51;50074.91;;;-149.77;100.00
60055;BME280;45930;53.514;55.904;2022-12-10T03:58:52;50094.72;;;-149.77;100.00
60055;BME280;45930;53.514;55.904;2022-12-10T03:59:53;50080.84;;;-149.77;100.00
60055;BME280;45930;53.514;55.904;2022-12-10T04:00:53;50061.03;;;-149.77;100.00
60055;BME280;45930;53.514;55.904;2022-12-10T04:01:54;50070.94;;;-149.77;100.00
60055;BME280;45930;53.514;55.904;2022-12-10T04:02:55;50066.97;;;-149.77;100.00
60055;BME280;45930;53.514;55.904;2022-12-10T04:03:55;50059.06;;;-149.77;100.00
60055;BME280;45930;53.514;55.904;2022-12-10T04:04:56;50033.31;;;-149.77;100.00
60055;BME280;45930;53.514;55.904;2022-12-10T04:06:08;50035.28;;;-149.77;100.00
60055;BME280;45930;53.514;55.904;2022-12-10T04:07:10;50047.16;;;-149.77;100.00
60055;BME280;45930;53.514;55.904;2022-12-10T04:08:11;50039.25;;;-149.77;100.00
60055;BME280;45930;53.514;55.904;2022-12-10T04:09:14;50065.00;;;-149.77;100.00
60055;BME280;45930;53.514;55.904;2022-12-10T04:10:15;50082.84;;;-149.77;100.00
60055;BME280;45930;53.514;55.904;2022-12-10T04:11:19;50045.19;;;-149.77;100.00
60055;BME280;45930;53.514;55.904;2022-12-10T04:12:19;50072.94;;;-149.77;100.00
60055;BME280;45930;53.514;55.904;2022-12-10T04:13:20;50057.06;;;-149.77;100.00
60055;BME280;45930;53.514;55.904;2022-12-10T04:14:39;50045.19;;;-149.77;100.00
60055;BME280;45930;53.514;55.904;2022-12-10T04:15:58;50057.06;;;-149.77;100.00
60055;BME280;45930;53.514;55.904;2022-12-10T04:17:18;50047.16;;;-149.77;100.00
60055;BME280;45930;53.514;55.904;2022-12-10T04:18:19;50070.94;;;-149.77;100.00
60055;BME280;45930;53.514;55.904;2022-12-10T04:19:20;50063.03;;;-149.77;100.00
60055;BME280;45930;53.514;55.904;2022-12-10T04:20:20;50039.25;;;-149.77;100.00
60055;BME280;45930;53.514;55.904;2022-12-10T04:21:41;50078.88;;;-149.77;100.00
60055;BME280;45930;53.514;55.904;2022-12-10T04:23:01;50043.22;;;-149.77;100.00
60055;BME280;45930;53.514;55.904;2022-12-10T04:24:23;50017.44;;;-149.77;100.00
60055;BME280;45930;53.514;55.904;2022-12-10T04:25:42;50055.09;;;-149.77;100.00
60055;BME280;45930;53.514;55.904;2022-12-10T04:27:23;50025.38;;;-149.77;100.00
60055;BME280;45930;53.514;55.904;2022-12-10T04:28:24;50031.31;;;-149.77;100.00
60055;BME280;45930;53.514;55.904;2022-12-10T04:29:30;50039.25;;;-149.77;100.00
60055;BME280;45930;53.514;55.904;2022-12-10T04:30:30;50009.53;;;-149.77;100.00
60055;BME280;45930;53.514;55.904;2022-12-10T04:31:31;50015.47;;;-149.77;100.00
60055;BME280;45930;53.514;55.904;2022-12-10T04:32:32;50031.31;;;-149.77;100.00
60055;BME280;45930;53.514;55.904;2022-12-10T04:33:33;50015.47;;;-149.77;100.00
60055;BME280;45930;53.514;55.904;2022-12-10T04:34:34;50055.09;;;-149.77;100.00
60055;BME280;45930;53.514;55.904;2022-12-10T04:35:35;50013.50;;;-149.77;100.00
60055;BME280;45930;53.514;55.904;2022-12-10T04:36:36;50055.09;;;-149.77;100.00
60055;BME280;45930;53.514;55.904;2022-12-10T04:37:37;50051.13;;;-149.77;100.00
60055;BME280;45930;53.514;55.904;2022-12-10T04:38:38;50015.47;;;-149.77;100.00
60055;BME280;45930;53.514;55.904;2022-12-10T04:39:39;50023.41;;;-149.77;100.00
60055;BME280;45930;53.514;55.904;2022-12-10T04:40:40;50019.44;;;-149.77;100.00
60055;BME280;45930;53.514;55.904;2022-12-10T04:41:43;50009.53;;;-149.77;100.00
60055;BME280;45930;53.514;55.904;2022-12-10T04:42:44;50015.47;;;-149.77;100.00
60055;BME280;45930;53.514;55.904;2022-12-10T04:43:44;50015.47;;;-149.77;100.00
60055;BME280;45930;53.514;55.904;2022-12-10T04:44:45;50019.44;;;-149.77;100.00
60055;BME280;45930;53.514;55.904;2022-12-10T04:45:46;50003.59;;;-149.77;100.00
60055;BME280;45930;53.514;55.904;2022-12-10T04:46:47;50037.25;;;-149.77;100.00
60055;BME280;45930;53.514;55.904;2022-12-10T04:47:48;50037.25;;;-149.77;100.00
60055;BME280;45930;53.514;55.904;2022-12-10T04:48:49;50080.84;;;-149.77;100.00
60055;BME280;45930;53.514;55.904;2022-12-10T04:49:51;50037.25;;;-149.77;100.00
60055;BME280;45930;53.514;55.904;2022-12-10T04:50:51;50041.22;;;-149.77;100.00
60055;BME280;45930;53.514;55.904;2022-12-10T04:51:52;50047.16;;;-149.77;100.00
60055;BME280;45930;53.514;55.904;2022-12-10T04:52:54;50035.28;;;-149.77;100.00
60055;BME280;45930;53.514;55.904;2022-12-10T04:53:54;50025.38;;;-149.77;100.00
60055;BME280;45930;53.514;55.904;2022-12-10T04:54:55;50057.06;;;-149.77;100.00
60055;BME280;45930;53.514;55.904;2022-12-10T04:55:56;50049.16;;;-149.77;100.00
60055;BME280;45930;53.514;55.904;2022-12-10T04:56:56;50065.00;;;-149.77;100.00
60055;BME280;45930;53.514;55.904;2022-12-10T04:57:57;50057.06;;;-149.77;100.00
60055;BME280;45930;53.514;55.904;2022-12-10T04:58:58;50053.13;;;-149.77;100.00
60055;BME280;45930;53.514;55.904;2022-12-10T04:59:59;50078.88;;;-149.77;100.00
60055;BME280;45930;53.514;55.904;2022-12-10T05:01:04;50066.97;;;-149.77;100.00
60055;BME280;45930;53.514;55.904;2022-12-10T05:02:05;50051.13;;;-149.77;100.00
60055;BME280;45930;53.514;55.904;2022-12-10T05:03:06;50057.06;;;-149.77;100.00
60055;BME280;45930;53.514;55.904;2022-12-10T05:04:10;50065.00;;;-149.77;100.00
60055;BME280;45930;53.514;55.904;2022-12-10T05:05:11;50051.13;;;-149.77;100.00
60055;BME280;45930;53.514;55.904;2022-12-10T05:06:16;50055.09;;;-149.77;100.00
60055;BME280;45930;53.514;55.904;2022-12-10T05:07:17;50063.03;;;-149.77;99.59
60055;BME280;45930;53.514;55.904;2022-12-10T05:08:18;50055.09;;;-149.77;99.94
60055;BME280;45930;53.514;55.904;2022-12-10T05:09:18;50086.78;;;-149.77;100.00
60055;BME280;45930;53.514;55.904;2022-12-10T05:10:19;50063.03;;;-149.77;100.00
60055;BME280;45930;53.514;55.904;2022-12-10T05:11:22;50074.91;;;-149.77;99.60
60055;BME280;45930;53.514;55.904;2022-12-10T05:12:23;50088.78;;;-149.77;99.38
60055;BME280;45930;53.514;55.904;2022-12-10T05:13:23;50086.78;;;-149.77;98.87
60055;BME280;45930;53.514;55.904;2022-12-10T05:14:24;50065.00;;;-149.77;98.93
60055;BME280;45930;53.514;55.904;2022-12-10T05:15:25;50070.94;;;-149.77;98.85
60055;BME280;45930;53.514;55.904;2022-12-10T05:16:28;50074.91;;;-149.77;99.32
60055;BME280;45930;53.514;55.904;2022-12-10T05:17:32;50082.84;;;-149.77;99.13
60055;BME280;45930;53.514;55.904;2022-12-10T05:18:33;50074.91;;;-149.77;99.08
60055;BME280;45930;53.514;55.904;2022-12-10T05:19:34;50082.84;;;-149.77;99.11
60055;BME280;45930;53.514;55.904;2022-12-10T05:20:35;50057.06;;;-149.77;99.11
60055;BME280;45930;53.514;55.904;2022-12-10T05:21:36;50055.09;;;-149.77;98.76
60055;BME280;45930;53.514;55.904;2022-12-10T05:22:55;50066.97;;;-149.77;98.94
60055;BME280;45930;53.514;55.904;2022-12-10T05:24:28;50061.03;;;-149.77;98.75
60055;BME280;45930;53.514;55.904;2022-12-10T05:25:29;50070.94;;;-149.77;97.92
60055;BME280;45930;53.514;55.904;2022-12-10T05:26:30;50051.13;;;-149.77;98.77
60055;BME280;45930;53.514;55.904;2022-12-10T05:27:32;50059.06;;;-149.77;98.91
60055;BME280;45930;53.514;55.904;2022-12-10T05:28:39;50027.34;;;-149.77;99.39
60055;BME280;45930;53.514;55.904;2022-12-10T05:29:40;50051.13;;;-149.77;99.58
60055;BME280;45930;53.514;55.904;2022-12-10T05:30:41;50059.06;;;-149.77;99.85
60055;BME280;45930;53.514;55.904;2022-12-10T05:31:41;50045.19;;;-149.77;100.00
60055;BME280;45930;53.514;55.904;2022-12-10T05:32:42;50047.16;;;-149.77;100.00
60055;BME280;45930;53.514;55.904;2022-12-10T05:33:46;50035.28;;;-149.77;99.39
60055;BME280;45930;53.514;55.904;2022-12-10T05:34:47;50063.03;;;-149.77;99.87
60055;BME280;45930;53.514;55.904;2022-12-10T05:35:56;50051.13;;;-149.77;100.00